createdAt,value
2023-02-07T00:01:28.688Z,5.20
2023-02-07T00:03:56.599Z,5.85
2023-02-07T00:06:35.609Z,5.25
2023-02-07T00:09:04.523Z,4.38
2023-02-07T00:11:31.294Z,4.60
2023-02-07T00:13:59.379Z,5.05
2023-02-07T00:16:27.110Z,4.72
2023-02-07T00:18:54.808Z,5.05
2023-02-07T00:21:23.691Z,4.38
2023-02-07T00:23:51.385Z,5.30
2023-02-07T00:26:22.288Z,5.80
2023-02-07T00:28:53.473Z,4.95
2023-02-07T00:31:23.509Z,5.53
2023-02-07T00:33:51.644Z,4.78
2023-02-07T00:36:21.246Z,5.43
2023-02-07T00:38:49.345Z,5.20
2023-02-07T00:41:18.449Z,7.72
2023-02-07T00:43:46.554Z,10.77
2023-02-07T00:46:13.763Z,9.80
2023-02-07T00:48:40.573Z,10.02
2023-02-07T00:51:09.762Z,10.30
2023-02-07T00:53:37.605Z,9.13
2023-02-07T00:56:04.870Z,8.77
2023-02-07T00:58:31.614Z,9.10
2023-02-07T01:00:58.529Z,10.07
2023-02-07T01:03:25.350Z,7.82
2023-02-07T01:05:52.063Z,8.20
2023-02-07T01:08:18.968Z,8.25
2023-02-07T01:10:46.579Z,11.60
2023-02-07T01:13:14.231Z,10.80
2023-02-07T01:15:43.983Z,13.85
2023-02-07T01:18:11.930Z,10.63
2023-02-07T01:20:39.825Z,10.48
2023-02-07T01:23:07.275Z,10.38
2023-02-07T01:25:36.910Z,8.93
2023-02-07T01:28:04.495Z,8.18
2023-02-07T01:30:31.431Z,8.25
2023-02-07T01:32:58.370Z,8.07
2023-02-07T01:35:26.253Z,9.18
2023-02-07T01:37:54.044Z,8.23
2023-02-07T01:40:21.013Z,8.88
2023-02-07T01:42:50.480Z,8.68
2023-02-07T01:45:34.025Z,9.80
2023-02-07T01:48:12.691Z,11.50
2023-02-07T01:50:42.231Z,10.43
2023-02-07T01:53:11.345Z,9.20
2023-02-07T01:55:41.128Z,8.52
2023-02-07T01:58:08.392Z,8.15
2023-02-07T02:00:37.284Z,8.15
2023-02-07T02:03:06.923Z,8.40
2023-02-07T02:05:37.125Z,7.30
2023-02-07T02:08:04.533Z,7.88
2023-02-07T02:11:00.518Z,8.55
2023-02-07T02:13:30.772Z,7.82
2023-02-07T02:16:04.888Z,7.43
2023-02-07T02:19:01.598Z,7.18
2023-02-07T02:21:55.957Z,7.13
2023-02-07T02:24:48.620Z,6.82
2023-02-07T02:27:54.908Z,7.20
2023-02-07T02:30:47.687Z,8.25
2023-02-07T02:33:26.787Z,10.00
2023-02-07T02:36:14.368Z,8.90
2023-02-07T02:39:13.761Z,9.75
2023-02-07T02:42:07.397Z,8.90
2023-02-07T02:44:46.696Z,9.13
2023-02-07T02:47:14.830Z,9.90
2023-02-07T02:49:46.291Z,9.50
2023-02-07T02:52:13.187Z,10.57
2023-02-07T02:54:41.068Z,10.10
2023-02-07T02:57:46.372Z,9.60
2023-02-07T03:00:25.144Z,12.32
2023-02-07T03:03:16.737Z,9.40
2023-02-07T03:06:06.165Z,9.75
2023-02-07T03:08:51.740Z,11.00
2023-02-07T03:11:22.027Z,10.20
2023-02-07T03:14:20.682Z,11.10
2023-02-07T03:17:08.045Z,12.15
2023-02-07T03:19:43.417Z,9.70
2023-02-07T03:22:14.011Z,8.45
2023-02-07T03:24:49.595Z,7.97
2023-02-07T03:27:20.345Z,8.35
2023-02-07T03:29:50.311Z,9.10
2023-02-07T03:32:19.220Z,8.55
2023-02-07T03:35:07.742Z,9.32
2023-02-07T03:37:40.572Z,8.05
2023-02-07T03:40:11.617Z,8.68
2023-02-07T03:42:49.936Z,8.23
2023-02-07T03:45:19.620Z,8.15
2023-02-07T03:47:46.928Z,8.27
2023-02-07T03:50:14.382Z,7.53
2023-02-07T03:52:41.309Z,7.75
2023-02-07T03:55:08.777Z,8.82
2023-02-07T03:57:35.508Z,7.70
2023-02-07T04:00:02.251Z,8.98
2023-02-07T04:02:39.254Z,7.47
2023-02-07T04:05:06.482Z,8.57
2023-02-07T04:07:33.337Z,6.57
2023-02-07T04:10:00.676Z,7.47
2023-02-07T04:12:35.024Z,7.00
2023-02-07T04:15:03.449Z,7.25
2023-02-07T04:17:31.532Z,7.55
2023-02-07T04:19:58.668Z,7.75
2023-02-07T04:22:25.555Z,8.00
2023-02-07T04:24:52.197Z,6.80
2023-02-07T04:27:18.902Z,6.68
2023-02-07T04:29:45.619Z,7.13
2023-02-07T04:32:15.226Z,7.65
2023-02-07T04:34:41.965Z,6.20
2023-02-07T04:37:08.881Z,7.13
2023-02-07T04:39:35.681Z,6.50
2023-02-07T04:42:02.381Z,7.28
2023-02-07T04:44:29.364Z,6.10
2023-02-07T04:46:56.075Z,7.00
2023-02-07T04:49:22.788Z,8.25
2023-02-07T04:51:49.521Z,6.60
2023-02-07T04:54:16.190Z,7.57
2023-02-07T04:56:42.894Z,6.82
2023-02-07T04:59:09.615Z,7.88
2023-02-07T05:01:36.501Z,8.43
2023-02-07T05:04:03.230Z,8.15
2023-02-07T05:06:30.119Z,8.13
2023-02-07T05:08:56.928Z,8.00
2023-02-07T05:11:23.613Z,9.63
2023-02-07T05:13:52.686Z,9.05
2023-02-07T05:16:22.103Z,8.95
2023-02-07T05:18:48.773Z,8.73
2023-02-07T05:21:15.513Z,7.50
2023-02-07T05:23:42.294Z,9.15
2023-02-07T05:26:08.967Z,8.70
2023-02-07T05:28:35.740Z,10.88
2023-02-07T05:31:05.437Z,12.73
2023-02-07T05:33:38.189Z,13.93
2023-02-07T05:36:05.265Z,10.07
2023-02-07T05:38:31.975Z,12.25
2023-02-07T05:40:58.887Z,12.70
2023-02-07T05:43:31.338Z,12.60
2023-02-07T05:45:58.212Z,11.40
2023-02-07T05:48:24.918Z,13.60
2023-02-07T05:50:51.610Z,13.85
2023-02-07T05:53:18.303Z,12.60
2023-02-07T05:55:45.093Z,13.18
2023-02-07T05:58:11.778Z,11.57
2023-02-07T06:00:41.330Z,14.07
2023-02-07T06:03:07.976Z,12.93
2023-02-07T06:05:38.194Z,9.93
2023-02-07T06:08:05.079Z,9.52
2023-02-07T06:10:33.010Z,10.77
2023-02-07T06:12:59.691Z,9.32
2023-02-07T06:15:26.363Z,9.32
2023-02-07T06:17:53.112Z,7.90
2023-02-07T06:20:19.908Z,8.70
2023-02-07T06:22:46.732Z,8.65
2023-02-07T06:25:13.532Z,9.52
2023-02-07T06:27:41.437Z,10.98
2023-02-07T06:30:11.830Z,8.73
2023-02-07T06:32:38.808Z,8.32
2023-02-07T06:35:08.700Z,8.38
2023-02-07T06:37:35.505Z,8.65
2023-02-07T06:40:03.262Z,9.27
2023-02-07T06:42:30.006Z,8.10
2023-02-07T06:44:56.837Z,7.85
2023-02-07T06:47:23.616Z,8.02
2023-02-07T06:49:52.985Z,7.68
2023-02-07T06:52:20.414Z,7.78
2023-02-07T06:54:47.137Z,7.53
2023-02-07T06:57:13.888Z,7.82
2023-02-07T06:59:40.660Z,7.30
2023-02-07T07:02:07.652Z,8.32
2023-02-07T07:04:34.384Z,8.25
2023-02-07T07:07:01.059Z,8.05
2023-02-07T07:09:27.708Z,8.05
2023-02-07T07:11:54.484Z,8.15
2023-02-07T07:14:24.001Z,8.20
2023-02-07T07:16:50.830Z,9.18
2023-02-07T07:19:17.519Z,9.85
2023-02-07T07:21:44.254Z,10.02
2023-02-07T07:24:10.972Z,10.73
2023-02-07T07:26:48.894Z,9.75
2023-02-07T07:29:17.708Z,12.20
2023-02-07T07:31:44.969Z,15.13
2023-02-07T07:34:12.158Z,13.40
2023-02-07T07:36:38.873Z,13.60
2023-02-07T07:39:05.577Z,15.27
2023-02-07T07:41:32.368Z,14.55
2023-02-07T07:43:59.106Z,15.77
2023-02-07T07:46:26.139Z,14.65
2023-02-07T07:48:52.974Z,14.55
2023-02-07T07:51:19.667Z,17.95
2023-02-07T07:53:46.411Z,15.60
2023-02-07T07:56:13.126Z,15.45
2023-02-07T07:58:40.052Z,17.80
2023-02-07T08:01:06.903Z,17.35
2023-02-07T08:03:33.952Z,19.35
2023-02-07T08:06:00.747Z,18.60
2023-02-07T08:08:27.507Z,17.73
2023-02-07T08:10:54.209Z,18.40
2023-02-07T08:13:21.650Z,17.50
2023-02-07T08:15:49.436Z,18.23
2023-02-07T08:18:16.185Z,16.85
2023-02-07T08:20:42.926Z,17.63
2023-02-07T08:23:09.764Z,20.48
2023-02-07T08:25:40.365Z,19.52
2023-02-07T08:28:07.065Z,19.05
2023-02-07T08:30:34.420Z,20.77
2023-02-07T08:33:03.830Z,20.77
2023-02-07T08:35:30.716Z,22.23
2023-02-07T08:37:58.276Z,20.02
2023-02-07T08:40:28.476Z,20.52
2023-02-07T08:42:55.140Z,20.08
2023-02-07T08:45:21.837Z,22.38
2023-02-07T08:47:48.555Z,19.67
2023-02-07T08:50:18.852Z,20.23
2023-02-07T08:52:45.758Z,19.05
2023-02-07T08:55:15.689Z,19.05
2023-02-07T08:57:42.387Z,19.60
2023-02-07T09:00:10.046Z,20.80
2023-02-07T09:02:36.794Z,19.20
2023-02-07T09:05:03.740Z,18.10
2023-02-07T09:07:31.600Z,18.77
2023-02-07T09:09:58.316Z,19.20
2023-02-07T09:12:25.100Z,18.60
2023-02-07T09:14:53.884Z,18.77
2023-02-07T09:17:20.589Z,19.30
2023-02-07T09:19:47.298Z,17.40
2023-02-07T09:22:14.777Z,18.23
2023-02-07T09:24:41.481Z,17.08
2023-02-07T09:27:11.309Z,17.63
2023-02-07T09:29:38.013Z,17.67
2023-02-07T09:32:04.836Z,17.23
2023-02-07T09:34:34.528Z,17.27
2023-02-07T09:37:01.579Z,18.52
2023-02-07T09:39:28.305Z,16.85
2023-02-07T09:42:16.119Z,15.80
2023-02-07T09:45:03.489Z,15.60
2023-02-07T09:47:32.494Z,17.20
2023-02-07T09:50:04.128Z,17.80
2023-02-07T09:52:33.890Z,14.45
2023-02-07T09:55:02.498Z,15.90
2023-02-07T09:57:37.645Z,15.68
2023-02-07T10:00:16.447Z,15.02
2023-02-07T10:02:57.554Z,15.20
2023-02-07T10:05:42.188Z,13.65
2023-02-07T10:08:16.856Z,14.02
2023-02-07T10:11:18.531Z,13.80
2023-02-07T10:14:38.695Z,14.10
2023-02-07T10:17:19.375Z,13.25
2023-02-07T10:20:20.728Z,12.05
2023-02-07T10:23:22.540Z,10.85
2023-02-07T10:26:20.057Z,7.22
2023-02-07T10:29:09.989Z,7.38
2023-02-07T10:31:40.559Z,7.00
2023-02-07T10:34:22.857Z,5.75
2023-02-07T10:36:52.173Z,7.28
2023-02-07T10:39:37.369Z,6.90
2023-02-07T10:42:04.455Z,6.63
2023-02-07T10:44:31.392Z,5.97
2023-02-07T10:47:03.791Z,6.80
2023-02-07T10:49:33.193Z,5.88
2023-02-07T10:52:16.156Z,5.88
2023-02-07T10:54:58.839Z,5.18
2023-02-07T10:57:27.657Z,5.47
2023-02-07T11:00:00.621Z,5.65
2023-02-07T11:02:35.310Z,5.70
2023-02-07T11:05:06.001Z,6.30
2023-02-07T11:07:46.170Z,4.70
2023-02-07T11:10:15.852Z,4.55
2023-02-07T11:12:48.125Z,4.30
2023-02-07T11:15:22.119Z,4.03
2023-02-07T11:17:51.181Z,4.35
2023-02-07T11:20:33.450Z,4.53
2023-02-07T11:23:03.397Z,4.53
2023-02-07T11:25:42.303Z,3.72
2023-02-07T11:28:20.216Z,4.10
2023-02-07T11:30:51.953Z,4.45
2023-02-07T11:33:20.799Z,3.92
2023-02-07T11:36:10.521Z,4.03
2023-02-07T11:38:41.925Z,3.50
2023-02-07T11:41:18.245Z,4.20
2023-02-07T11:44:14.990Z,4.47
2023-02-07T11:46:45.028Z,4.55
2023-02-07T11:49:28.795Z,4.82
2023-02-07T11:52:01.345Z,6.05
2023-02-07T11:54:30.691Z,6.80
2023-02-07T11:57:24.349Z,5.93
2023-02-07T12:00:22.402Z,6.97
2023-02-07T12:03:19.283Z,5.40
2023-02-07T12:05:51.272Z,6.30
2023-02-07T12:08:24.190Z,6.50
2023-02-07T12:11:00.369Z,6.97
2023-02-07T12:13:35.492Z,6.72
2023-02-07T12:16:08.711Z,5.57
2023-02-07T12:18:41.266Z,6.18
2023-02-07T12:21:14.223Z,6.65
2023-02-07T12:23:57.100Z,6.30
2023-02-07T12:26:26.181Z,7.22
2023-02-07T12:29:12.834Z,7.30
2023-02-07T12:31:59.278Z,7.20
2023-02-07T12:34:48.822Z,7.50
2023-02-07T12:37:25.948Z,7.15
2023-02-07T12:40:24.727Z,6.80
2023-02-07T12:43:25.912Z,5.55
2023-02-07T12:46:01.583Z,5.55
2023-02-07T12:48:50.043Z,5.53
2023-02-07T12:51:37.940Z,6.60
2023-02-07T12:54:38.709Z,6.32
2023-02-07T12:57:13.039Z,5.60
2023-02-07T12:59:55.025Z,6.07
2023-02-07T13:03:05.794Z,6.15
2023-02-07T13:05:51.608Z,6.45
2023-02-07T13:08:31.073Z,5.40
2023-02-07T13:11:20.777Z,5.28
2023-02-07T13:14:13.784Z,5.03
2023-02-07T13:17:01.829Z,4.93
2023-02-07T13:20:08.404Z,5.20
2023-02-07T13:22:53.877Z,5.70
2023-02-07T13:25:35.484Z,5.50
2023-02-07T13:28:30.400Z,6.10
2023-02-07T13:31:00.133Z,6.03
2023-02-07T13:33:39.277Z,6.07
2023-02-07T13:36:23.017Z,6.28
2023-02-07T13:39:05.771Z,7.10
2023-02-07T13:41:48.557Z,6.40
2023-02-07T13:44:21.826Z,6.47
2023-02-07T13:47:02.093Z,7.20
2023-02-07T13:49:44.279Z,7.50
2023-02-07T13:52:32.421Z,7.60
2023-02-07T13:55:38.554Z,5.82
2023-02-07T13:58:44.182Z,8.10
2023-02-07T14:01:17.357Z,8.07
2023-02-07T14:04:11.211Z,7.45
2023-02-07T14:06:41.482Z,6.72
2023-02-07T14:09:22.420Z,6.93
2023-02-07T14:12:02.169Z,6.72
2023-02-07T14:14:37.403Z,6.63
2023-02-07T14:17:06.996Z,6.70
2023-02-07T14:19:40.209Z,7.70
2023-02-07T14:22:33.458Z,7.55
2023-02-07T14:25:03.246Z,7.05
2023-02-07T14:28:03.837Z,7.10
2023-02-07T14:31:02.528Z,7.93
2023-02-07T14:33:34.644Z,6.75
2023-02-07T14:36:13.956Z,6.97
2023-02-07T14:38:46.010Z,7.53
2023-02-07T14:41:15.757Z,7.23
2023-02-07T14:43:56.842Z,7.80
2023-02-07T14:46:47.927Z,7.15
2023-02-07T14:49:17.743Z,7.82
2023-02-07T14:51:47.717Z,7.95
2023-02-07T14:54:19.713Z,7.50
2023-02-07T14:56:56.736Z,7.30
2023-02-07T14:59:30.443Z,7.43
2023-02-07T15:02:00.169Z,8.05
2023-02-07T15:04:26.998Z,6.97
2023-02-07T15:06:53.661Z,6.63
2023-02-07T15:09:26.915Z,6.35
2023-02-07T15:12:10.512Z,5.97
2023-02-07T15:14:42.717Z,5.25
2023-02-07T15:17:10.904Z,5.35
2023-02-07T15:19:40.764Z,6.10
2023-02-07T15:22:23.931Z,5.45
2023-02-07T15:24:59.486Z,5.18
2023-02-07T15:27:28.789Z,5.75
2023-02-07T15:29:58.725Z,5.65
2023-02-07T15:32:35.524Z,6.55
2023-02-07T15:35:18.832Z,6.07
2023-02-07T15:37:48.819Z,6.25
2023-02-07T15:40:17.937Z,6.47
2023-02-07T15:42:56.284Z,6.32
2023-02-07T15:45:31.024Z,7.13
2023-02-07T15:48:00.755Z,6.43
2023-02-07T15:50:31.477Z,7.05
2023-02-07T15:53:01.998Z,7.80
2023-02-07T15:55:42.976Z,6.85
2023-02-07T15:58:21.196Z,7.40
2023-02-07T16:00:47.966Z,7.07
2023-02-07T16:03:20.923Z,7.68
2023-02-07T16:05:48.492Z,8.27
2023-02-07T16:08:38.536Z,8.43
2023-02-07T16:11:27.694Z,7.88
2023-02-07T16:14:03.063Z,8.02
2023-02-07T16:16:37.188Z,7.70
2023-02-07T16:19:08.420Z,8.27
2023-02-07T16:21:36.723Z,8.65
2023-02-07T16:24:13.757Z,8.73
2023-02-07T16:26:42.844Z,7.43
2023-02-07T16:29:16.850Z,8.27
2023-02-07T16:31:44.303Z,8.23
2023-02-07T16:34:16.353Z,8.40
2023-02-07T16:36:43.896Z,8.15
2023-02-07T16:39:10.587Z,8.43
2023-02-07T16:41:41.447Z,8.43
2023-02-07T16:44:14.740Z,8.77
2023-02-07T16:46:41.466Z,8.60
2023-02-07T16:49:29.515Z,8.80
2023-02-07T16:51:56.683Z,8.48
2023-02-07T16:54:23.552Z,11.30
2023-02-07T16:56:56.213Z,12.57
2023-02-07T17:01:53.551Z,23.65
2023-02-07T17:04:21.092Z,23.33
2023-02-07T17:06:48.389Z,24.20
2023-02-07T17:09:25.742Z,23.90
2023-02-07T17:11:53.900Z,23.58
2023-02-07T17:14:21.214Z,20.15
2023-02-07T17:16:48.361Z,19.38
2023-02-07T17:19:24.002Z,15.32
2023-02-07T17:21:52.121Z,13.80
2023-02-07T17:24:19.121Z,13.60
2023-02-07T17:26:48.969Z,13.07
2023-02-07T17:29:17.247Z,11.55
2023-02-07T17:31:44.838Z,11.00
2023-02-07T17:34:12.043Z,11.02
2023-02-07T17:36:45.171Z,10.45
2023-02-07T17:39:16.051Z,11.02
2023-02-07T17:41:42.791Z,10.23
2023-02-07T17:44:09.792Z,10.05
2023-02-07T17:46:36.583Z,11.00
2023-02-07T17:49:03.772Z,12.77
2023-02-07T17:51:30.513Z,15.93
2023-02-07T17:53:57.259Z,18.65
2023-02-07T17:56:25.238Z,22.30
2023-02-07T17:58:53.314Z,20.60
2023-02-07T18:01:20.194Z,19.75
2023-02-07T18:03:48.543Z,24.80
2023-02-07T18:06:17.528Z,21.35
2023-02-07T18:08:45.445Z,18.98
2023-02-07T18:11:14.272Z,16.02
2023-02-07T18:13:46.558Z,14.13
2023-02-07T18:16:21.888Z,13.55
2023-02-07T18:18:51.697Z,13.43
2023-02-07T18:21:18.668Z,14.43
2023-02-07T18:23:45.797Z,16.23
2023-02-07T18:26:15.055Z,18.35
2023-02-07T18:28:43.056Z,18.70
2023-02-07T18:31:18.933Z,17.55
2023-02-07T18:33:46.175Z,16.08
2023-02-07T18:36:13.391Z,15.20
2023-02-07T18:38:40.338Z,14.27
2023-02-07T18:41:09.832Z,12.20
2023-02-07T18:43:37.909Z,12.15
2023-02-07T18:46:13.112Z,14.05
2023-02-07T18:48:40.236Z,10.68
2023-02-07T18:51:10.302Z,10.23
2023-02-07T18:53:37.326Z,10.60
2023-02-07T18:56:06.165Z,9.95
2023-02-07T18:58:34.279Z,9.77
2023-02-07T19:01:08.870Z,9.52
2023-02-07T19:03:38.396Z,10.35
2023-02-07T19:06:07.865Z,10.32
2023-02-07T19:08:34.742Z,11.05
2023-02-07T19:11:03.995Z,12.90
2023-02-07T19:13:35.464Z,11.90
2023-02-07T19:16:04.619Z,12.93
2023-02-07T19:18:31.437Z,11.85
2023-02-07T19:21:03.991Z,11.25
2023-02-07T19:23:30.681Z,11.50
2023-02-07T19:25:57.406Z,11.32
2023-02-07T19:28:28.527Z,12.80
2023-02-07T19:30:58.182Z,13.85
2023-02-07T19:33:25.393Z,15.57
2023-02-07T19:35:52.257Z,14.60
2023-02-07T19:38:18.987Z,14.77
2023-02-07T19:40:45.827Z,13.85
2023-02-07T19:43:12.590Z,14.45
2023-02-07T19:45:39.378Z,13.65
2023-02-07T19:48:06.117Z,15.15
2023-02-07T19:50:34.078Z,14.52
2023-02-07T19:53:00.819Z,15.02
2023-02-07T19:55:27.670Z,14.95
2023-02-07T19:57:54.544Z,13.68
2023-02-07T20:00:21.426Z,13.20
2023-02-07T20:02:48.058Z,12.50
2023-02-07T20:05:14.759Z,13.25
2023-02-07T20:07:41.686Z,13.85
2023-02-07T20:10:10.257Z,15.07
2023-02-07T20:12:36.928Z,13.02
2023-02-07T20:15:06.638Z,13.73
2023-02-07T20:17:35.098Z,13.98
2023-02-07T20:20:02.538Z,13.13
2023-02-07T20:22:29.549Z,13.38
2023-02-07T20:24:56.285Z,14.27
2023-02-07T20:27:22.948Z,13.88
2023-02-07T20:29:55.770Z,13.73
2023-02-07T20:32:22.494Z,14.52
2023-02-07T20:34:49.206Z,16.63
2023-02-07T20:37:15.900Z,16.40
2023-02-07T20:39:42.572Z,20.25
2023-02-07T20:42:09.302Z,23.75
2023-02-07T20:44:36.650Z,21.95
2023-02-07T20:47:07.117Z,18.85
2023-02-07T20:49:34.093Z,17.08
2023-02-07T20:52:00.900Z,16.05
2023-02-07T20:54:29.668Z,14.32
2023-02-07T20:56:59.098Z,13.73
2023-02-07T20:59:28.641Z,14.63
2023-02-07T21:01:55.963Z,13.00
2023-02-07T21:04:24.366Z,12.68
2023-02-07T21:06:52.716Z,13.35
2023-02-07T21:09:20.002Z,14.43
2023-02-07T21:11:49.598Z,13.27
2023-02-07T21:14:25.683Z,16.27
2023-02-07T21:16:57.576Z,13.77
2023-02-07T21:19:25.410Z,14.93
2023-02-07T21:21:55.102Z,12.98
2023-02-07T21:24:22.198Z,12.55
2023-02-07T21:26:50.260Z,13.40
2023-02-07T21:29:17.214Z,12.35
2023-02-07T21:31:45.276Z,14.63
2023-02-07T21:34:13.068Z,13.35
2023-02-07T21:36:39.728Z,10.82
2023-02-07T21:39:10.423Z,11.10
2023-02-07T21:41:39.156Z,11.07
2023-02-07T21:44:08.944Z,10.77
2023-02-07T21:46:45.936Z,10.50
2023-02-07T21:49:16.024Z,10.23
2023-02-07T21:51:44.936Z,9.70
2023-02-07T21:54:11.869Z,9.30
2023-02-07T21:56:41.400Z,9.25
2023-02-07T21:59:14.820Z,8.57
2023-02-07T22:01:41.664Z,8.30
2023-02-07T22:04:10.456Z,8.90
2023-02-07T22:06:41.794Z,8.98
2023-02-07T22:09:10.467Z,7.82
2023-02-07T22:11:37.164Z,8.45
2023-02-07T22:14:04.771Z,8.80
2023-02-07T22:16:35.103Z,8.65
2023-02-07T22:19:04.208Z,8.43
2023-02-07T22:21:36.523Z,8.52
2023-02-07T22:24:04.543Z,7.95
2023-02-07T22:26:32.183Z,9.15
2023-02-07T22:28:59.110Z,9.10
2023-02-07T22:31:29.080Z,8.35
2023-02-07T22:33:59.399Z,9.48
2023-02-07T22:36:28.484Z,10.15
2023-02-07T22:38:55.691Z,9.75
2023-02-07T22:41:22.676Z,9.70
2023-02-07T22:43:50.346Z,10.93
2023-02-07T22:46:19.596Z,10.68
2023-02-07T22:48:46.664Z,11.68
2023-02-07T22:51:28.426Z,10.95
2023-02-07T22:53:57.664Z,10.30
2023-02-07T22:56:25.745Z,10.48
2023-02-07T22:58:53.425Z,10.30
2023-02-07T23:01:24.044Z,11.00
2023-02-07T23:03:51.765Z,10.75
2023-02-07T23:06:19.380Z,11.00
2023-02-07T23:08:46.711Z,11.10
2023-02-07T23:11:15.471Z,11.73
2023-02-07T23:13:42.643Z,10.93
2023-02-07T23:16:18.328Z,11.18
2023-02-07T23:18:47.248Z,11.20
2023-02-07T23:21:16.922Z,11.90
2023-02-07T23:23:44.301Z,10.93
2023-02-07T23:26:14.615Z,10.98
2023-02-07T23:28:42.003Z,12.43
2023-02-07T23:31:10.883Z,12.82
2023-02-07T23:33:38.304Z,11.43
2023-02-07T23:36:10.135Z,11.30
2023-02-07T23:38:36.821Z,11.00
2023-02-07T23:41:04.614Z,11.52
2023-02-07T23:43:31.401Z,11.88
2023-02-07T23:45:58.222Z,10.82
2023-02-07T23:48:25.182Z,11.48
2023-02-07T23:50:53.805Z,11.50
2023-02-07T23:53:21.122Z,11.80
2023-02-07T23:55:49.950Z,12.23
2023-02-07T23:58:17.242Z,11.82
